createdAt,value
2017-09-03T00:00:15.603Z,1.73
2017-09-03T00:02:43.183Z,2.10
2017-09-03T00:05:10.671Z,1.93
2017-09-03T00:07:38.142Z,1.80
2017-09-03T00:10:05.613Z,1.40
2017-09-03T00:12:33.097Z,2.13
2017-09-03T00:15:01.342Z,1.70
2017-09-03T00:17:28.815Z,1.97
2017-09-03T00:19:56.295Z,2.10
2017-09-03T00:22:23.780Z,1.97
2017-09-03T00:24:51.255Z,1.47
2017-09-03T00:27:18.729Z,1.80
2017-09-03T00:29:46.202Z,2.00
2017-09-03T00:32:13.711Z,1.90
2017-09-03T00:34:41.194Z,1.90
2017-09-03T00:37:08.681Z,1.90
2017-09-03T00:39:36.158Z,1.80
2017-09-03T00:42:03.647Z,1.73
2017-09-03T00:44:31.127Z,2.10
2017-09-03T00:46:58.603Z,2.30
2017-09-03T00:49:26.090Z,1.97
2017-09-03T00:51:53.576Z,2.63
2017-09-03T00:54:21.057Z,2.70
2017-09-03T00:56:48.543Z,2.60
2017-09-03T00:59:16.026Z,2.97
2017-09-03T01:01:43.511Z,2.40
2017-09-03T01:04:10.999Z,2.80
2017-09-03T01:06:38.487Z,2.60
2017-09-03T01:09:05.966Z,2.73
2017-09-03T01:11:33.456Z,2.60
2017-09-03T01:14:00.935Z,2.57
2017-09-03T01:16:28.415Z,2.50
2017-09-03T01:18:55.904Z,3.20
2017-09-03T01:21:23.447Z,3.53
2017-09-03T01:23:50.917Z,3.60
2017-09-03T01:26:18.404Z,3.80
2017-09-03T01:28:45.886Z,3.43
2017-09-03T01:31:13.379Z,4.17
2017-09-03T01:33:40.863Z,3.93
2017-09-03T01:36:08.352Z,4.67
2017-09-03T01:38:35.835Z,4.07
2017-09-03T01:41:03.308Z,4.87
2017-09-03T01:43:30.799Z,4.70
2017-09-03T01:45:58.280Z,5.47
2017-09-03T01:48:25.759Z,5.00
2017-09-03T01:50:53.238Z,4.43
2017-09-03T01:53:20.719Z,4.50
2017-09-03T01:55:48.207Z,4.37
2017-09-03T01:58:15.695Z,4.40
2017-09-03T02:00:43.162Z,5.77
2017-09-03T02:03:10.638Z,4.63
2017-09-03T02:05:38.111Z,4.80
2017-09-03T02:08:05.581Z,4.40
2017-09-03T02:10:33.059Z,5.10
2017-09-03T02:13:00.548Z,4.50
2017-09-03T02:15:28.017Z,4.73
2017-09-03T02:17:55.493Z,4.50
2017-09-03T02:20:22.992Z,3.33
2017-09-03T02:22:50.469Z,3.70
2017-09-03T02:25:17.938Z,3.40
2017-09-03T02:27:45.410Z,2.97
2017-09-03T02:30:12.885Z,4.00
2017-09-03T02:32:40.366Z,3.43
2017-09-03T02:35:07.856Z,3.97
2017-09-03T02:37:35.466Z,3.93
2017-09-03T02:40:02.954Z,3.67
2017-09-03T02:42:30.430Z,4.43
2017-09-03T02:44:57.914Z,4.00
2017-09-03T02:47:25.403Z,3.93
2017-09-03T02:49:52.883Z,5.00
2017-09-03T02:52:21.129Z,2.53
2017-09-03T02:54:48.611Z,4.20
2017-09-03T02:57:16.094Z,4.13
2017-09-03T02:59:43.583Z,6.10
2017-09-03T03:02:11.062Z,6.27
2017-09-03T03:04:38.542Z,5.00
2017-09-03T03:07:06.040Z,5.83
2017-09-03T03:09:33.513Z,3.93
2017-09-03T03:12:00.994Z,4.33
2017-09-03T03:14:28.487Z,4.23
2017-09-03T03:16:56.063Z,4.90
2017-09-03T03:19:23.540Z,5.37
2017-09-03T03:21:51.018Z,4.40
2017-09-03T03:24:18.507Z,4.37
2017-09-03T03:26:45.991Z,4.50
2017-09-03T03:29:13.461Z,4.53
2017-09-03T03:31:40.945Z,5.67
2017-09-03T03:34:08.443Z,5.07
2017-09-03T03:36:35.922Z,4.87
2017-09-03T03:39:03.403Z,4.90
2017-09-03T03:41:30.873Z,4.97
2017-09-03T03:43:58.354Z,2.27
2017-09-03T03:46:25.834Z,2.23
2017-09-03T03:48:53.310Z,4.50
2017-09-03T03:51:20.786Z,4.00
2017-09-03T03:53:48.263Z,3.20
2017-09-03T03:56:15.739Z,3.60
2017-09-03T03:58:43.209Z,4.00
2017-09-03T04:01:10.691Z,3.20
2017-09-03T04:03:38.948Z,3.63
2017-09-03T04:06:06.431Z,2.50
2017-09-03T04:08:33.917Z,2.87
2017-09-03T04:11:01.410Z,2.20
2017-09-03T04:13:28.904Z,2.83
2017-09-03T04:15:56.382Z,2.43
2017-09-03T04:18:23.862Z,2.80
2017-09-03T04:20:51.337Z,2.33
2017-09-03T04:23:18.819Z,2.80
2017-09-03T04:25:46.302Z,2.30
2017-09-03T04:28:13.786Z,1.67
2017-09-03T04:30:41.272Z,1.83
2017-09-03T04:33:08.754Z,2.00
2017-09-03T04:35:36.225Z,2.10
2017-09-03T04:40:45.843Z,2.40
2017-09-03T04:43:13.328Z,3.50
2017-09-03T04:45:40.806Z,3.07
2017-09-03T04:48:08.288Z,2.93
2017-09-03T04:50:35.766Z,3.80
2017-09-03T04:53:03.324Z,2.60
2017-09-03T04:55:30.812Z,2.90
2017-09-03T04:57:58.292Z,2.50
2017-09-03T05:00:25.787Z,2.87
2017-09-03T05:02:53.262Z,2.10
2017-09-03T05:05:20.747Z,2.43
2017-09-03T05:07:48.226Z,2.97
2017-09-03T05:10:15.706Z,2.07
2017-09-03T05:12:43.188Z,2.40
2017-09-03T05:15:10.657Z,2.13
2017-09-03T05:17:38.144Z,2.00
2017-09-03T05:20:05.628Z,2.50
2017-09-03T05:22:33.128Z,2.40
2017-09-03T05:25:01.448Z,2.40
2017-09-03T05:27:28.971Z,2.40
2017-09-03T05:29:56.454Z,2.20
2017-09-03T05:32:23.943Z,2.50
2017-09-03T05:34:51.426Z,2.77
2017-09-03T05:37:18.903Z,2.23
2017-09-03T05:39:46.392Z,2.27
2017-09-03T05:42:13.879Z,2.53
2017-09-03T05:44:41.363Z,2.90
2017-09-03T05:47:08.847Z,3.17
2017-09-03T05:49:36.340Z,2.27
2017-09-03T05:52:03.822Z,2.90
2017-09-03T05:54:31.289Z,2.00
2017-09-03T05:56:58.775Z,2.00
2017-09-03T05:59:26.267Z,2.60
2017-09-03T06:01:53.750Z,2.33
2017-09-03T06:04:21.233Z,1.93
2017-09-03T06:06:48.709Z,2.10
2017-09-03T06:09:16.189Z,2.27
2017-09-03T06:11:43.662Z,2.60
2017-09-03T06:14:11.153Z,3.23
2017-09-03T06:16:39.402Z,3.23
2017-09-03T06:19:06.904Z,3.90
2017-09-03T06:21:34.379Z,3.07
2017-09-03T06:24:01.867Z,66.03
2017-09-03T06:26:29.360Z,67.30
2017-09-03T06:28:56.856Z,37.37
2017-09-03T06:31:24.350Z,22.20
2017-09-03T06:33:51.836Z,6.63
2017-09-03T06:36:19.335Z,33.60
2017-09-03T06:38:46.826Z,5.47
2017-09-03T06:41:14.297Z,2.50
2017-09-03T06:43:41.785Z,9.63
2017-09-03T06:46:09.259Z,4.90
2017-09-03T06:48:36.745Z,6.73
2017-09-03T06:51:04.227Z,8.77
2017-09-03T06:53:31.715Z,2.60
2017-09-03T06:55:59.190Z,1.63
2017-09-03T06:58:26.667Z,1.80
2017-09-03T07:00:54.150Z,7.40
2017-09-03T07:03:21.621Z,2.73
2017-09-03T07:05:49.117Z,2.13
2017-09-03T07:08:16.609Z,3.40
2017-09-03T07:10:44.095Z,3.40
2017-09-03T07:13:11.591Z,2.00
2017-09-03T07:15:39.068Z,1.70
2017-09-03T07:18:06.550Z,1.57
2017-09-03T07:20:34.043Z,7.57
2017-09-03T07:23:01.541Z,92.20
2017-09-03T07:25:29.031Z,18.13
2017-09-03T07:27:56.510Z,56.33
2017-09-03T07:30:24.003Z,24.20
2017-09-03T07:32:51.504Z,9.50
2017-09-03T07:35:19.018Z,3.80
2017-09-03T07:37:46.528Z,8.73
2017-09-03T07:40:14.062Z,1.83
2017-09-03T07:42:41.539Z,1.70
2017-09-03T07:45:09.026Z,2.20
2017-09-03T07:47:36.515Z,1.40
2017-09-03T07:50:04.009Z,106.43
2017-09-03T07:52:31.503Z,18.97
2017-09-03T07:54:58.999Z,88.17
2017-09-03T07:57:26.490Z,9.47
2017-09-03T07:59:53.985Z,10.63
2017-09-03T08:02:21.467Z,21.77
2017-09-03T08:04:48.956Z,24.37
2017-09-03T08:07:16.447Z,2.17
2017-09-03T08:09:43.923Z,3.53
2017-09-03T08:12:11.403Z,7.50
2017-09-03T08:14:38.891Z,6.27
2017-09-03T08:17:06.382Z,16.87
2017-09-03T08:19:33.859Z,7.03
2017-09-03T08:22:01.329Z,2.10
2017-09-03T08:24:28.816Z,2.33
2017-09-03T08:26:56.303Z,2.60
2017-09-03T08:29:23.776Z,2.03
2017-09-03T08:31:51.256Z,2.20
2017-09-03T08:34:18.729Z,2.50
2017-09-03T08:36:46.196Z,2.10
2017-09-03T08:39:13.681Z,1.87
2017-09-03T08:41:41.174Z,1.80
2017-09-03T08:44:08.659Z,1.57
2017-09-03T08:46:36.140Z,4.90
2017-09-03T08:49:03.628Z,1.27
2017-09-03T08:51:31.115Z,3.83
2017-09-03T08:53:58.596Z,4.00
2017-09-03T08:56:26.070Z,1.20
2017-09-03T08:58:53.550Z,1.30
2017-09-03T09:01:21.034Z,1.00
2017-09-03T09:03:48.505Z,1.00
2017-09-03T09:06:15.986Z,1.20
2017-09-03T09:08:43.462Z,2.33
2017-09-03T09:11:10.925Z,1.20
2017-09-03T09:13:38.411Z,0.90
2017-09-03T09:16:05.895Z,1.20
2017-09-03T09:18:33.378Z,1.27
2017-09-03T09:21:00.859Z,1.00
2017-09-03T09:23:28.338Z,10.90
2017-09-03T09:25:55.813Z,5.07
2017-09-03T09:28:23.300Z,10.53
2017-09-03T09:30:50.777Z,1.23
2017-09-03T09:33:18.253Z,20.87
2017-09-03T09:35:45.730Z,8.73
2017-09-03T09:38:13.813Z,4.70
2017-09-03T09:40:42.204Z,3.10
2017-09-03T09:43:10.322Z,5.43
2017-09-03T09:45:38.417Z,9.20
2017-09-03T09:48:06.016Z,1.97
2017-09-03T09:50:34.187Z,3.53
2017-09-03T09:53:02.114Z,8.43
2017-09-03T09:55:29.889Z,1.20
2017-09-03T09:57:58.317Z,3.60
2017-09-03T10:00:26.024Z,4.70
2017-09-03T10:02:53.865Z,3.17
2017-09-03T10:05:21.649Z,1.33
2017-09-03T10:07:49.795Z,0.80
2017-09-03T10:10:18.271Z,2.03
2017-09-03T10:12:46.416Z,3.20
2017-09-03T10:15:14.488Z,1.70
2017-09-03T10:17:42.154Z,3.33
2017-09-03T10:20:10.278Z,3.20
2017-09-03T10:22:38.717Z,1.90
2017-09-03T10:25:07.702Z,1.30
2017-09-03T10:27:36.397Z,1.97
2017-09-03T10:30:04.828Z,2.20
2017-09-03T10:32:33.081Z,2.30
2017-09-03T10:35:01.244Z,1.40
2017-09-03T10:37:29.086Z,2.20
2017-09-03T10:39:57.160Z,2.77
2017-09-03T10:42:25.468Z,1.53
2017-09-03T10:44:53.479Z,2.27
2017-09-03T10:47:21.178Z,1.60
2017-09-03T10:49:49.059Z,1.70
2017-09-03T10:52:18.305Z,1.73
2017-09-03T10:54:48.008Z,1.87
2017-09-03T10:57:16.027Z,2.93
2017-09-03T10:59:44.402Z,1.90
2017-09-03T11:02:12.550Z,2.40
2017-09-03T11:04:40.658Z,1.27
2017-09-03T11:07:08.761Z,1.00
2017-09-03T11:09:36.676Z,2.17
2017-09-03T11:12:04.791Z,1.80
2017-09-03T11:14:33.007Z,1.40
2017-09-03T11:17:01.055Z,1.50
2017-09-03T11:19:30.018Z,2.03
2017-09-03T11:21:58.193Z,1.67
2017-09-03T11:24:26.398Z,1.80
2017-09-03T11:26:54.223Z,1.80
2017-09-03T11:29:22.813Z,1.00
2017-09-03T11:31:50.829Z,1.30
2017-09-03T11:34:18.601Z,1.13
2017-09-03T11:36:46.451Z,1.60
2017-09-03T11:39:14.222Z,1.20
2017-09-03T11:41:42.068Z,2.70
2017-09-03T11:44:10.646Z,1.43
2017-09-03T11:46:39.219Z,2.30
2017-09-03T11:49:07.332Z,24.63
2017-09-03T11:51:34.817Z,5.03
2017-09-03T11:54:02.303Z,2.53
2017-09-03T11:56:29.797Z,1.77
2017-09-03T11:58:57.332Z,1.73
2017-09-03T12:01:24.809Z,1.33
2017-09-03T12:03:52.304Z,1.17
2017-09-03T12:06:19.806Z,1.40
2017-09-03T12:08:47.285Z,1.40
2017-09-03T12:11:14.782Z,1.10
2017-09-03T12:13:42.280Z,1.00
2017-09-03T12:16:09.771Z,1.40
2017-09-03T12:18:37.279Z,1.33
2017-09-03T12:21:04.771Z,1.23
2017-09-03T12:23:32.246Z,1.20
2017-09-03T12:25:59.743Z,1.00
2017-09-03T12:28:27.236Z,1.00
2017-09-03T12:30:54.724Z,1.30
2017-09-03T12:33:22.217Z,0.80
2017-09-03T12:35:49.688Z,1.10
2017-09-03T12:38:17.183Z,1.10
2017-09-03T12:40:44.757Z,1.17
2017-09-03T12:43:12.236Z,1.00
2017-09-03T12:45:39.727Z,1.13
2017-09-03T12:48:07.243Z,1.00
2017-09-03T12:50:34.727Z,0.90
2017-09-03T12:53:02.214Z,0.83
2017-09-03T12:55:29.696Z,1.10
2017-09-03T12:57:57.202Z,0.80
2017-09-03T13:00:24.683Z,1.07
2017-09-03T13:02:52.163Z,0.80
2017-09-03T13:05:19.726Z,1.00
2017-09-03T13:07:47.210Z,1.00
2017-09-03T13:10:14.685Z,0.90
2017-09-03T13:12:42.174Z,1.17
2017-09-03T13:15:09.674Z,1.00
2017-09-03T13:17:37.189Z,0.93
2017-09-03T13:20:04.674Z,1.00
2017-09-03T13:22:32.166Z,0.90
2017-09-03T13:24:59.653Z,1.00
2017-09-03T13:27:27.139Z,1.17
2017-09-03T13:29:54.629Z,0.90
2017-09-03T13:32:22.119Z,1.00
2017-09-03T13:34:49.604Z,0.87
2017-09-03T13:37:17.088Z,0.93
2017-09-03T13:39:44.579Z,1.20
2017-09-03T13:42:12.055Z,0.70
2017-09-03T13:44:39.550Z,0.70
2017-09-03T13:47:07.034Z,0.90
2017-09-03T13:49:34.510Z,0.80
2017-09-03T13:52:02.010Z,0.87
2017-09-03T13:54:29.499Z,0.97
2017-09-03T13:56:56.995Z,1.00
2017-09-03T13:59:24.481Z,0.90
2017-09-03T14:01:51.964Z,0.70
2017-09-03T14:04:19.447Z,0.80
2017-09-03T14:06:46.935Z,0.90
2017-09-03T14:09:14.445Z,1.00
2017-09-03T14:11:42.024Z,0.70
2017-09-03T14:14:09.520Z,0.90
2017-09-03T14:16:37.008Z,0.80
2017-09-03T14:19:04.507Z,1.20
2017-09-03T14:21:31.977Z,0.80
2017-09-03T14:23:59.452Z,0.80
2017-09-03T14:26:26.926Z,1.00
2017-09-03T14:28:54.406Z,0.90
2017-09-03T14:31:21.903Z,0.80
2017-09-03T14:33:49.382Z,0.80
2017-09-03T14:36:16.866Z,1.00
2017-09-03T14:38:44.363Z,1.00
2017-09-03T14:41:11.846Z,1.00
2017-09-03T14:43:39.343Z,0.80
2017-09-03T14:46:06.816Z,0.90
2017-09-03T14:48:34.303Z,0.80
2017-09-03T14:51:01.787Z,1.00
2017-09-03T14:53:29.279Z,1.00
2017-09-03T14:55:56.766Z,0.83
2017-09-03T14:58:24.250Z,0.80
2017-09-03T15:00:51.721Z,0.80
2017-09-03T15:03:19.206Z,0.80
2017-09-03T15:05:46.680Z,0.83
2017-09-03T15:08:14.157Z,0.90
2017-09-03T15:10:41.629Z,0.90
2017-09-03T15:13:09.127Z,0.90
2017-09-03T15:15:36.609Z,68.47
2017-09-03T15:18:04.140Z,122.17
2017-09-03T15:20:31.634Z,133.90
2017-09-03T15:22:59.115Z,66.77
2017-09-03T15:25:26.598Z,36.83
2017-09-03T15:27:54.194Z,63.03
2017-09-03T15:30:21.678Z,25.97
2017-09-03T15:32:49.162Z,343.87
2017-09-03T15:35:16.653Z,487.60
2017-09-03T15:37:44.147Z,224.43
2017-09-03T15:40:11.639Z,154.70
2017-09-03T15:42:39.134Z,97.33
2017-09-03T15:45:06.621Z,111.33
2017-09-03T15:47:34.107Z,47.40
2017-09-03T15:50:01.603Z,133.33
2017-09-03T15:52:29.098Z,100.03
2017-09-03T15:54:56.598Z,67.10
2017-09-03T15:57:24.098Z,43.90
2017-09-03T15:59:51.580Z,42.40
2017-09-03T16:02:19.075Z,650.63
2017-09-03T16:04:46.571Z,418.83
2017-09-03T16:07:14.159Z,120.07
2017-09-03T16:09:41.654Z,283.57
2017-09-03T16:12:09.152Z,135.93
2017-09-03T16:14:36.646Z,102.90
2017-09-03T16:17:04.138Z,41.17
2017-09-03T16:19:31.635Z,512.00
2017-09-03T16:21:59.117Z,140.47
2017-09-03T16:24:26.618Z,137.60
2017-09-03T16:26:54.102Z,94.80
2017-09-03T16:29:21.593Z,66.93
2017-09-03T16:31:49.083Z,34.33
2017-09-03T16:34:16.571Z,52.57
2017-09-03T16:36:44.065Z,50.37
2017-09-03T16:39:12.319Z,25.37
2017-09-03T16:41:39.836Z,30.30
2017-09-03T16:44:07.340Z,28.27
2017-09-03T16:46:34.857Z,24.87
2017-09-03T16:49:02.369Z,20.57
2017-09-03T16:51:29.874Z,27.73
2017-09-03T16:53:57.361Z,36.23
2017-09-03T16:56:24.856Z,28.47
2017-09-03T16:58:52.338Z,20.23
2017-09-03T17:01:19.826Z,32.67
2017-09-03T17:03:47.334Z,506.60
2017-09-03T17:06:14.996Z,94.00
2017-09-03T17:08:48.022Z,53.57
2017-09-03T17:11:16.148Z,37.70
2017-09-03T17:13:44.462Z,23.23
2017-09-03T17:16:12.035Z,21.80
2017-09-03T17:18:41.244Z,28.00
2017-09-03T17:21:08.859Z,18.80
2017-09-03T17:23:36.337Z,20.80
2017-09-03T17:26:05.727Z,21.37
2017-09-03T17:28:35.036Z,18.63
2017-09-03T17:31:05.087Z,20.57
2017-09-03T17:33:32.958Z,14.00
2017-09-03T17:36:15.872Z,5.70
2017-09-03T17:38:46.007Z,11.03
2017-09-03T17:44:16.512Z,4.60
2017-09-03T17:46:55.070Z,14.20
2017-09-03T17:49:27.059Z,13.13
2017-09-03T17:51:55.912Z,13.23
2017-09-03T17:54:24.030Z,12.37
2017-09-03T17:56:52.792Z,8.80
2017-09-03T17:59:22.409Z,11.00
2017-09-03T18:01:50.533Z,8.10
2017-09-03T18:04:19.794Z,9.27
2017-09-03T18:06:50.531Z,3.73
2017-09-03T18:09:19.563Z,7.63
2017-09-03T18:11:49.629Z,9.40
2017-09-03T18:14:17.349Z,6.97
2017-09-03T18:16:45.498Z,5.87
2017-09-03T18:19:13.558Z,5.33
2017-09-03T18:21:41.038Z,5.80
2017-09-03T18:24:08.526Z,2.77
2017-09-03T18:26:36.033Z,2.47
2017-09-03T18:29:04.346Z,239.23
2017-09-03T18:31:33.730Z,100.13
2017-09-03T18:34:01.278Z,57.60
2017-09-03T18:36:38.687Z,45.63
2017-09-03T18:39:12.211Z,15.00
2017-09-03T18:41:39.713Z,18.57
2017-09-03T18:44:27.908Z,21.63
2017-09-03T18:46:55.471Z,18.30
2017-09-03T18:49:22.954Z,14.90
2017-09-03T18:51:50.595Z,1.53
2017-09-03T18:54:18.094Z,9.70
2017-09-03T18:56:45.589Z,6.77
2017-09-03T18:59:13.569Z,3.90
2017-09-03T19:01:41.854Z,176.73
2017-09-03T19:04:09.561Z,314.47
2017-09-03T19:06:39.526Z,214.73
2017-09-03T19:09:07.157Z,115.80
2017-09-03T19:11:34.689Z,368.17
2017-09-03T19:14:02.248Z,538.83
2017-09-03T19:16:29.755Z,303.77
2017-09-03T19:18:57.271Z,180.07
2017-09-03T19:21:26.289Z,124.70
2017-09-03T19:23:53.786Z,55.97
2017-09-03T19:26:21.295Z,34.10
2017-09-03T19:28:48.792Z,18.90
2017-09-03T19:31:17.431Z,15.37
2017-09-03T19:33:45.695Z,6.33
2017-09-03T19:36:13.206Z,439.27
2017-09-03T19:38:43.639Z,297.30
2017-09-03T19:41:11.161Z,179.37
2017-09-03T19:43:38.673Z,163.63
2017-09-03T19:46:06.173Z,116.33
2017-09-03T19:48:34.511Z,98.87
2017-09-03T19:51:02.031Z,89.27
2017-09-03T19:53:29.591Z,47.23
2017-09-03T19:55:57.100Z,309.17
2017-09-03T19:58:24.657Z,396.97
2017-09-03T20:00:52.192Z,254.27
2017-09-03T20:03:19.688Z,119.47
2017-09-03T20:05:47.583Z,72.63
2017-09-03T20:08:15.600Z,45.10
2017-09-03T20:10:43.096Z,18.67
2017-09-03T20:13:10.761Z,15.80
2017-09-03T20:15:38.254Z,8.70
2017-09-03T20:18:05.749Z,304.87
2017-09-03T20:20:33.253Z,264.50
2017-09-03T20:23:00.752Z,206.50
2017-09-03T20:25:28.237Z,98.20
2017-09-03T20:27:55.727Z,14.30
2017-09-03T20:30:23.247Z,20.73
2017-09-03T20:32:50.733Z,3.43
2017-09-03T20:35:18.237Z,13.33
2017-09-03T20:37:46.456Z,2.07
2017-09-03T20:40:13.946Z,8.00
2017-09-03T20:42:41.421Z,2.30
2017-09-03T20:45:08.925Z,4.67
2017-09-03T20:47:36.419Z,3.10
2017-09-03T20:50:03.914Z,2.80
2017-09-03T20:52:31.410Z,1.43
2017-09-03T20:54:58.923Z,1.90
2017-09-03T20:57:26.414Z,2.10
2017-09-03T20:59:53.901Z,2.17
2017-09-03T21:02:21.400Z,2.77
2017-09-03T21:04:48.889Z,1.93
2017-09-03T21:07:16.404Z,2.10
2017-09-03T21:09:43.898Z,8.07
2017-09-03T21:12:11.383Z,5.23
2017-09-03T21:14:38.930Z,4.40
2017-09-03T21:17:06.410Z,3.93
2017-09-03T21:19:33.882Z,4.03
2017-09-03T21:22:01.368Z,1.33
2017-09-03T21:24:28.847Z,3.10
2017-09-03T21:26:56.374Z,2.30
2017-09-03T21:29:23.882Z,1.87
2017-09-03T21:31:51.389Z,2.60
2017-09-03T21:34:19.001Z,2.97
2017-09-03T21:36:46.490Z,2.33
2017-09-03T21:39:13.974Z,2.47
2017-09-03T21:41:41.539Z,1.83
2017-09-03T21:44:09.154Z,1.97
2017-09-03T21:46:36.683Z,2.57
2017-09-03T21:49:04.213Z,2.37
2017-09-03T21:51:31.737Z,1.60
2017-09-03T21:53:59.318Z,2.13
2017-09-03T21:56:26.841Z,1.20
2017-09-03T21:58:54.325Z,1.40
2017-09-03T22:01:21.797Z,1.43
2017-09-03T22:03:49.291Z,1.50
2017-09-03T22:06:16.925Z,1.30
2017-09-03T22:08:44.554Z,1.10
2017-09-03T22:11:12.941Z,1.03
2017-09-03T22:13:40.574Z,1.10
2017-09-03T22:16:08.090Z,0.90
2017-09-03T22:18:35.701Z,1.10
2017-09-03T22:21:03.410Z,1.60
2017-09-03T22:23:31.179Z,1.03
2017-09-03T22:25:59.114Z,1.20
2017-09-03T22:28:26.815Z,0.90
2017-09-03T22:30:54.573Z,1.20
2017-09-03T22:33:22.181Z,0.90
2017-09-03T22:35:49.809Z,1.20
2017-09-03T22:38:17.562Z,0.80
2017-09-03T22:40:45.222Z,1.20
2017-09-03T22:43:12.830Z,1.33
2017-09-03T22:45:40.565Z,1.53
2017-09-03T22:48:08.223Z,1.10
2017-09-03T22:50:35.880Z,1.23
2017-09-03T22:53:03.494Z,0.80
2017-09-03T22:55:31.222Z,1.00
2017-09-03T22:57:58.849Z,1.20
2017-09-03T23:00:26.528Z,0.90
2017-09-03T23:02:54.158Z,1.07
2017-09-03T23:05:21.961Z,1.00
2017-09-03T23:07:49.522Z,1.03
2017-09-03T23:10:17.034Z,1.00
2017-09-03T23:12:44.521Z,1.13
2017-09-03T23:15:11.995Z,1.07
2017-09-03T23:17:39.488Z,0.90
2017-09-03T23:20:06.970Z,1.00
2017-09-03T23:22:35.317Z,1.03
2017-09-03T23:25:02.794Z,0.90
2017-09-03T23:27:30.275Z,0.83
2017-09-03T23:29:57.748Z,1.00
2017-09-03T23:32:25.233Z,0.90
2017-09-03T23:34:52.706Z,1.03
2017-09-03T23:37:20.202Z,1.27
2017-09-03T23:39:47.703Z,1.03
2017-09-03T23:42:15.201Z,1.30
2017-09-03T23:44:42.686Z,1.20
2017-09-03T23:47:10.166Z,1.10
2017-09-03T23:49:37.659Z,0.90
2017-09-03T23:52:05.142Z,1.03
2017-09-03T23:54:32.626Z,1.10
2017-09-03T23:57:00.101Z,1.23
2017-09-03T23:59:27.583Z,1.40
